sensor_id;sensor_type;location;lat;lon;timestamp;P1;durP1;ratioP1;P2;durP2;ratioP2
20462;SDS011;10390;53.566;9.980;2023-03-14T00:01:29;6.32;;;5.30;;
20462;SDS011;10390;53.566;9.980;2023-03-14T00:03:55;5.82;;;5.22;;
20462;SDS011;10390;53.566;9.980;2023-03-14T00:06:21;6.25;;;5.43;;
20462;SDS011;10390;53.566;9.980;2023-03-14T00:08:47;6.25;;;5.07;;
20462;SDS011;10390;53.566;9.980;2023-03-14T00:11:17;5.75;;;4.72;;
20462;SDS011;10390;53.566;9.980;2023-03-14T00:13:48;6.05;;;5.18;;
20462;SDS011;10390;53.566;9.980;2023-03-14T00:16:17;6.40;;;5.15;;
20462;SDS011;10390;53.566;9.980;2023-03-14T00:18:43;5.95;;;5.20;;
20462;SDS011;10390;53.566;9.980;2023-03-14T00:21:09;5.95;;;5.30;;
20462;SDS011;10390;53.566;9.980;2023-03-14T00:23:36;6.43;;;4.60;;
20462;SDS011;10390;53.566;9.980;2023-03-14T00:26:03;7.57;;;5.10;;
20462;SDS011;10390;53.566;9.980;2023-03-14T00:28:33;7.60;;;5.20;;
20462;SDS011;10390;53.566;9.980;2023-03-14T00:30:59;5.93;;;4.65;;
20462;SDS011;10390;53.566;9.980;2023-03-14T00:33:27;5.97;;;4.97;;
20462;SDS011;10390;53.566;9.980;2023-03-14T00:35:53;6.70;;;5.00;;
20462;SDS011;10390;53.566;9.980;2023-03-14T00:38:19;6.25;;;5.20;;
20462;SDS011;10390;53.566;9.980;2023-03-14T00:40:46;7.47;;;5.38;;
20462;SDS011;10390;53.566;9.980;2023-03-14T00:43:11;6.97;;;5.63;;
20462;SDS011;10390;53.566;9.980;2023-03-14T00:45:37;6.95;;;5.32;;
20462;SDS011;10390;53.566;9.980;2023-03-14T00:48:02;6.80;;;5.38;;
20462;SDS011;10390;53.566;9.980;2023-03-14T00:50:28;9.93;;;6.03;;
20462;SDS011;10390;53.566;9.980;2023-03-14T00:52:54;7.47;;;5.40;;
20462;SDS011;10390;53.566;9.980;2023-03-14T00:55:19;6.82;;;5.70;;
20462;SDS011;10390;53.566;9.980;2023-03-14T00:57:45;6.82;;;5.75;;
20462;SDS011;10390;53.566;9.980;2023-03-14T01:00:11;6.85;;;5.30;;
20462;SDS011;10390;53.566;9.980;2023-03-14T01:02:37;7.95;;;5.47;;
20462;SDS011;10390;53.566;9.980;2023-03-14T01:05:03;6.65;;;5.03;;
20462;SDS011;10390;53.566;9.980;2023-03-14T01:07:29;7.68;;;5.30;;
20462;SDS011;10390;53.566;9.980;2023-03-14T01:09:55;8.35;;;5.07;;
20462;SDS011;10390;53.566;9.980;2023-03-14T01:12:20;7.05;;;5.13;;
20462;SDS011;10390;53.566;9.980;2023-03-14T01:14:46;7.07;;;5.25;;
20462;SDS011;10390;53.566;9.980;2023-03-14T01:17:11;7.05;;;5.30;;
20462;SDS011;10390;53.566;9.980;2023-03-14T01:19:37;6.45;;;4.68;;
20462;SDS011;10390;53.566;9.980;2023-03-14T01:22:03;6.68;;;5.00;;
20462;SDS011;10390;53.566;9.980;2023-03-14T01:24:28;9.10;;;5.43;;
20462;SDS011;10390;53.566;9.980;2023-03-14T01:26:54;6.13;;;5.53;;
20462;SDS011;10390;53.566;9.980;2023-03-14T01:29:20;6.25;;;5.05;;
20462;SDS011;10390;53.566;9.980;2023-03-14T01:31:45;7.55;;;5.40;;
20462;SDS011;10390;53.566;9.980;2023-03-14T01:34:11;7.10;;;5.03;;
20462;SDS011;10390;53.566;9.980;2023-03-14T01:36:36;8.07;;;5.18;;
20462;SDS011;10390;53.566;9.980;2023-03-14T01:39:02;6.90;;;5.10;;
20462;SDS011;10390;53.566;9.980;2023-03-14T01:41:28;7.10;;;4.85;;
20462;SDS011;10390;53.566;9.980;2023-03-14T01:43:54;6.70;;;5.03;;
20462;SDS011;10390;53.566;9.980;2023-03-14T01:49:14;7.50;;;5.50;;
20462;SDS011;10390;53.566;9.980;2023-03-14T01:54:14;6.13;;;4.70;;
20462;SDS011;10390;53.566;9.980;2023-03-14T01:56:48;6.47;;;4.90;;
20462;SDS011;10390;53.566;9.980;2023-03-14T01:59:18;9.30;;;4.90;;
20462;SDS011;10390;53.566;9.980;2023-03-14T02:01:44;6.40;;;5.25;;
20462;SDS011;10390;53.566;9.980;2023-03-14T02:04:13;6.95;;;4.97;;
20462;SDS011;10390;53.566;9.980;2023-03-14T02:06:44;6.13;;;5.18;;
20462;SDS011;10390;53.566;9.980;2023-03-14T02:09:23;6.68;;;5.03;;
20462;SDS011;10390;53.566;9.980;2023-03-14T02:11:49;8.07;;;5.75;;
20462;SDS011;10390;53.566;9.980;2023-03-14T02:14:25;6.78;;;4.90;;
20462;SDS011;10390;53.566;9.980;2023-03-14T02:16:58;7.38;;;5.32;;
20462;SDS011;10390;53.566;9.980;2023-03-14T02:19:34;6.57;;;5.35;;
20462;SDS011;10390;53.566;9.980;2023-03-14T02:22:13;8.35;;;5.57;;
20462;SDS011;10390;53.566;9.980;2023-03-14T02:24:46;6.50;;;5.35;;
20462;SDS011;10390;53.566;9.980;2023-03-14T02:27:26;6.20;;;5.60;;
20462;SDS011;10390;53.566;9.980;2023-03-14T02:29:54;7.10;;;5.63;;
20462;SDS011;10390;53.566;9.980;2023-03-14T02:32:22;6.22;;;5.03;;
20462;SDS011;10390;53.566;9.980;2023-03-14T02:34:51;5.78;;;4.93;;
20462;SDS011;10390;53.566;9.980;2023-03-14T02:37:20;6.45;;;5.40;;
20462;SDS011;10390;53.566;9.980;2023-03-14T02:39:49;7.25;;;5.85;;
20462;SDS011;10390;53.566;9.980;2023-03-14T02:42:15;6.38;;;5.30;;
20462;SDS011;10390;53.566;9.980;2023-03-14T02:44:51;8.05;;;5.20;;
20462;SDS011;10390;53.566;9.980;2023-03-14T02:47:27;8.02;;;5.18;;
20462;SDS011;10390;53.566;9.980;2023-03-14T02:49:58;6.28;;;4.65;;
20462;SDS011;10390;53.566;9.980;2023-03-14T02:52:27;7.60;;;5.07;;
20462;SDS011;10390;53.566;9.980;2023-03-14T02:54:53;6.15;;;4.57;;
20462;SDS011;10390;53.566;9.980;2023-03-14T02:57:18;5.22;;;4.70;;
20462;SDS011;10390;53.566;9.980;2023-03-14T02:59:44;6.43;;;5.38;;
20462;SDS011;10390;53.566;9.980;2023-03-14T03:02:09;5.80;;;5.18;;
20462;SDS011;10390;53.566;9.980;2023-03-14T03:04:35;6.57;;;5.00;;
20462;SDS011;10390;53.566;9.980;2023-03-14T03:07:01;5.55;;;4.90;;
20462;SDS011;10390;53.566;9.980;2023-03-14T03:09:26;7.18;;;5.32;;
20462;SDS011;10390;53.566;9.980;2023-03-14T03:11:52;6.38;;;5.07;;
20462;SDS011;10390;53.566;9.980;2023-03-14T03:14:17;6.55;;;5.28;;
20462;SDS011;10390;53.566;9.980;2023-03-14T03:16:43;6.20;;;4.95;;
20462;SDS011;10390;53.566;9.980;2023-03-14T03:19:08;6.00;;;5.20;;
20462;SDS011;10390;53.566;9.980;2023-03-14T03:21:34;6.05;;;4.70;;
20462;SDS011;10390;53.566;9.980;2023-03-14T03:24:00;6.35;;;4.78;;
20462;SDS011;10390;53.566;9.980;2023-03-14T03:26:25;6.13;;;4.85;;
20462;SDS011;10390;53.566;9.980;2023-03-14T03:28:51;6.13;;;4.97;;
20462;SDS011;10390;53.566;9.980;2023-03-14T03:31:17;6.60;;;4.68;;
20462;SDS011;10390;53.566;9.980;2023-03-14T03:33:42;7.30;;;5.22;;
20462;SDS011;10390;53.566;9.980;2023-03-14T03:36:08;6.95;;;4.90;;
20462;SDS011;10390;53.566;9.980;2023-03-14T03:38:35;5.50;;;4.90;;
20462;SDS011;10390;53.566;9.980;2023-03-14T03:41:07;5.45;;;4.65;;
20462;SDS011;10390;53.566;9.980;2023-03-14T03:43:33;5.70;;;4.90;;
20462;SDS011;10390;53.566;9.980;2023-03-14T03:46:02;5.43;;;4.55;;
20462;SDS011;10390;53.566;9.980;2023-03-14T03:48:28;5.88;;;4.68;;
20462;SDS011;10390;53.566;9.980;2023-03-14T03:50:54;7.47;;;5.20;;
20462;SDS011;10390;53.566;9.980;2023-03-14T03:53:19;8.13;;;5.30;;
20462;SDS011;10390;53.566;9.980;2023-03-14T03:55:45;8.20;;;5.63;;
20462;SDS011;10390;53.566;9.980;2023-03-14T03:58:10;7.00;;;5.05;;
20462;SDS011;10390;53.566;9.980;2023-03-14T04:00:36;7.20;;;5.10;;
20462;SDS011;10390;53.566;9.980;2023-03-14T04:03:02;7.82;;;4.63;;
20462;SDS011;10390;53.566;9.980;2023-03-14T04:05:27;6.38;;;4.80;;
20462;SDS011;10390;53.566;9.980;2023-03-14T04:07:53;5.82;;;4.60;;
20462;SDS011;10390;53.566;9.980;2023-03-14T04:10:19;6.72;;;5.00;;
20462;SDS011;10390;53.566;9.980;2023-03-14T04:12:44;6.18;;;4.38;;
20462;SDS011;10390;53.566;9.980;2023-03-14T04:15:10;6.53;;;4.72;;
20462;SDS011;10390;53.566;9.980;2023-03-14T04:17:35;7.47;;;4.78;;
20462;SDS011;10390;53.566;9.980;2023-03-14T04:20:01;8.20;;;4.90;;
20462;SDS011;10390;53.566;9.980;2023-03-14T04:22:28;7.85;;;5.28;;
20462;SDS011;10390;53.566;9.980;2023-03-14T04:24:53;5.65;;;5.05;;
20462;SDS011;10390;53.566;9.980;2023-03-14T04:27:19;6.40;;;4.80;;
20462;SDS011;10390;53.566;9.980;2023-03-14T04:29:44;7.03;;;5.18;;
20462;SDS011;10390;53.566;9.980;2023-03-14T04:32:10;8.18;;;5.15;;
20462;SDS011;10390;53.566;9.980;2023-03-14T04:34:35;7.07;;;4.95;;
20462;SDS011;10390;53.566;9.980;2023-03-14T04:37:01;6.25;;;4.75;;
20462;SDS011;10390;53.566;9.980;2023-03-14T04:39:27;5.80;;;4.70;;
20462;SDS011;10390;53.566;9.980;2023-03-14T04:41:53;6.65;;;5.00;;
20462;SDS011;10390;53.566;9.980;2023-03-14T04:44:19;6.68;;;4.82;;
20462;SDS011;10390;53.566;9.980;2023-03-14T04:46:44;6.07;;;4.63;;
20462;SDS011;10390;53.566;9.980;2023-03-14T04:49:10;6.78;;;5.15;;
20462;SDS011;10390;53.566;9.980;2023-03-14T04:51:35;6.65;;;5.30;;
20462;SDS011;10390;53.566;9.980;2023-03-14T04:54:01;6.53;;;4.85;;
20462;SDS011;10390;53.566;9.980;2023-03-14T04:56:27;6.53;;;5.82;;
20462;SDS011;10390;53.566;9.980;2023-03-14T04:58:52;5.95;;;5.32;;
20462;SDS011;10390;53.566;9.980;2023-03-14T05:01:18;8.25;;;6.03;;
20462;SDS011;10390;53.566;9.980;2023-03-14T05:03:44;6.60;;;5.25;;
20462;SDS011;10390;53.566;9.980;2023-03-14T05:06:09;6.60;;;5.13;;
20462;SDS011;10390;53.566;9.980;2023-03-14T05:08:35;5.32;;;4.82;;
20462;SDS011;10390;53.566;9.980;2023-03-14T05:11:01;7.35;;;5.70;;
20462;SDS011;10390;53.566;9.980;2023-03-14T05:13:27;7.47;;;5.68;;
20462;SDS011;10390;53.566;9.980;2023-03-14T05:15:53;6.10;;;5.13;;
20462;SDS011;10390;53.566;9.980;2023-03-14T05:18:27;6.75;;;5.00;;
20462;SDS011;10390;53.566;9.980;2023-03-14T05:20:53;6.65;;;5.38;;
20462;SDS011;10390;53.566;9.980;2023-03-14T05:23:18;6.18;;;4.85;;
20462;SDS011;10390;53.566;9.980;2023-03-14T05:25:44;7.18;;;4.88;;
20462;SDS011;10390;53.566;9.980;2023-03-14T05:28:10;6.22;;;5.50;;
20462;SDS011;10390;53.566;9.980;2023-03-14T05:30:35;5.88;;;4.60;;
20462;SDS011;10390;53.566;9.980;2023-03-14T05:33:01;7.43;;;4.85;;
20462;SDS011;10390;53.566;9.980;2023-03-14T05:35:26;6.63;;;5.22;;
20462;SDS011;10390;53.566;9.980;2023-03-14T05:37:52;5.57;;;4.97;;
20462;SDS011;10390;53.566;9.980;2023-03-14T05:40:18;5.15;;;4.65;;
20462;SDS011;10390;53.566;9.980;2023-03-14T05:42:43;5.68;;;5.05;;
20462;SDS011;10390;53.566;9.980;2023-03-14T05:45:09;6.20;;;5.28;;
20462;SDS011;10390;53.566;9.980;2023-03-14T05:47:35;4.90;;;4.30;;
20462;SDS011;10390;53.566;9.980;2023-03-14T05:50:00;5.15;;;4.38;;
20462;SDS011;10390;53.566;9.980;2023-03-14T05:52:26;5.47;;;4.72;;
20462;SDS011;10390;53.566;9.980;2023-03-14T05:54:52;5.90;;;5.03;;
20462;SDS011;10390;53.566;9.980;2023-03-14T05:57:17;6.85;;;4.88;;
20462;SDS011;10390;53.566;9.980;2023-03-14T05:59:43;5.85;;;5.25;;
20462;SDS011;10390;53.566;9.980;2023-03-14T06:02:08;5.40;;;4.53;;
20462;SDS011;10390;53.566;9.980;2023-03-14T06:04:34;6.00;;;4.60;;
20462;SDS011;10390;53.566;9.980;2023-03-14T06:07:00;5.20;;;4.60;;
20462;SDS011;10390;53.566;9.980;2023-03-14T06:09:25;5.70;;;5.13;;
20462;SDS011;10390;53.566;9.980;2023-03-14T06:11:51;6.07;;;5.25;;
20462;SDS011;10390;53.566;9.980;2023-03-14T06:14:17;5.85;;;5.20;;
20462;SDS011;10390;53.566;9.980;2023-03-14T06:16:42;7.22;;;5.10;;
20462;SDS011;10390;53.566;9.980;2023-03-14T06:19:08;7.50;;;5.38;;
20462;SDS011;10390;53.566;9.980;2023-03-14T06:21:34;5.95;;;5.20;;
20462;SDS011;10390;53.566;9.980;2023-03-14T06:23:59;6.97;;;5.68;;
20462;SDS011;10390;53.566;9.980;2023-03-14T06:26:25;7.40;;;5.75;;
20462;SDS011;10390;53.566;9.980;2023-03-14T06:28:50;8.52;;;5.78;;
20462;SDS011;10390;53.566;9.980;2023-03-14T06:31:16;7.65;;;5.20;;
20462;SDS011;10390;53.566;9.980;2023-03-14T06:33:42;6.82;;;5.10;;
20462;SDS011;10390;53.566;9.980;2023-03-14T06:36:08;6.32;;;5.32;;
20462;SDS011;10390;53.566;9.980;2023-03-14T06:38:34;6.40;;;5.80;;
20462;SDS011;10390;53.566;9.980;2023-03-14T06:41:03;7.05;;;6.35;;
20462;SDS011;10390;53.566;9.980;2023-03-14T06:43:30;6.63;;;5.40;;
20462;SDS011;10390;53.566;9.980;2023-03-14T06:45:56;6.03;;;5.45;;
20462;SDS011;10390;53.566;9.980;2023-03-14T06:48:21;7.05;;;5.60;;
20462;SDS011;10390;53.566;9.980;2023-03-14T06:50:47;6.72;;;5.70;;
20462;SDS011;10390;53.566;9.980;2023-03-14T06:53:13;7.53;;;5.20;;
20462;SDS011;10390;53.566;9.980;2023-03-14T06:55:39;8.50;;;5.15;;
20462;SDS011;10390;53.566;9.980;2023-03-14T06:58:05;5.78;;;4.93;;
20462;SDS011;10390;53.566;9.980;2023-03-14T07:00:33;6.95;;;6.10;;
20462;SDS011;10390;53.566;9.980;2023-03-14T07:02:59;6.90;;;5.78;;
20462;SDS011;10390;53.566;9.980;2023-03-14T07:05:25;7.13;;;5.20;;
20462;SDS011;10390;53.566;9.980;2023-03-14T07:07:50;7.32;;;5.57;;
20462;SDS011;10390;53.566;9.980;2023-03-14T07:10:16;6.88;;;5.50;;
20462;SDS011;10390;53.566;9.980;2023-03-14T07:12:42;7.45;;;5.35;;
20462;SDS011;10390;53.566;9.980;2023-03-14T07:15:08;6.65;;;5.22;;
20462;SDS011;10390;53.566;9.980;2023-03-14T07:17:35;6.15;;;5.32;;
20462;SDS011;10390;53.566;9.980;2023-03-14T07:20:01;8.60;;;6.32;;
20462;SDS011;10390;53.566;9.980;2023-03-14T07:22:29;7.07;;;6.38;;
20462;SDS011;10390;53.566;9.980;2023-03-14T07:24:54;6.57;;;5.72;;
20462;SDS011;10390;53.566;9.980;2023-03-14T07:27:20;8.63;;;6.18;;
20462;SDS011;10390;53.566;9.980;2023-03-14T07:29:45;6.60;;;6.00;;
20462;SDS011;10390;53.566;9.980;2023-03-14T07:32:11;6.80;;;5.78;;
20462;SDS011;10390;53.566;9.980;2023-03-14T07:34:39;6.28;;;5.57;;
20462;SDS011;10390;53.566;9.980;2023-03-14T07:37:08;6.75;;;5.68;;
20462;SDS011;10390;53.566;9.980;2023-03-14T07:39:34;6.50;;;5.80;;
20462;SDS011;10390;53.566;9.980;2023-03-14T07:42:00;6.47;;;5.75;;
20462;SDS011;10390;53.566;9.980;2023-03-14T07:44:26;6.13;;;5.53;;
20462;SDS011;10390;53.566;9.980;2023-03-14T07:46:52;7.00;;;5.25;;
20462;SDS011;10390;53.566;9.980;2023-03-14T07:49:18;6.60;;;5.97;;
20462;SDS011;10390;53.566;9.980;2023-03-14T07:51:43;7.60;;;5.35;;
20462;SDS011;10390;53.566;9.980;2023-03-14T07:54:11;6.03;;;5.40;;
20462;SDS011;10390;53.566;9.980;2023-03-14T07:56:37;6.22;;;5.63;;
20462;SDS011;10390;53.566;9.980;2023-03-14T07:59:03;6.45;;;5.28;;
20462;SDS011;10390;53.566;9.980;2023-03-14T08:01:28;6.88;;;5.43;;
20462;SDS011;10390;53.566;9.980;2023-03-14T08:03:54;6.28;;;5.18;;
20462;SDS011;10390;53.566;9.980;2023-03-14T08:06:20;6.32;;;5.22;;
20462;SDS011;10390;53.566;9.980;2023-03-14T08:08:45;6.97;;;5.50;;
20462;SDS011;10390;53.566;9.980;2023-03-14T08:11:11;5.90;;;4.68;;
20462;SDS011;10390;53.566;9.980;2023-03-14T08:13:37;5.50;;;4.90;;
20462;SDS011;10390;53.566;9.980;2023-03-14T08:16:04;5.47;;;4.97;;
20462;SDS011;10390;53.566;9.980;2023-03-14T08:18:30;5.18;;;4.38;;
20462;SDS011;10390;53.566;9.980;2023-03-14T08:20:56;5.68;;;4.82;;
20462;SDS011;10390;53.566;9.980;2023-03-14T08:23:21;6.32;;;5.25;;
20462;SDS011;10390;53.566;9.980;2023-03-14T08:25:50;5.88;;;5.00;;
20462;SDS011;10390;53.566;9.980;2023-03-14T08:28:16;5.20;;;4.70;;
20462;SDS011;10390;53.566;9.980;2023-03-14T08:30:42;6.82;;;5.40;;
20462;SDS011;10390;53.566;9.980;2023-03-14T08:33:08;5.70;;;5.10;;
20462;SDS011;10390;53.566;9.980;2023-03-14T08:35:34;7.85;;;4.60;;
20462;SDS011;10390;53.566;9.980;2023-03-14T08:37:59;5.38;;;4.65;;
20462;SDS011;10390;53.566;9.980;2023-03-14T08:40:26;5.78;;;4.80;;
20462;SDS011;10390;53.566;9.980;2023-03-14T08:42:51;5.68;;;4.85;;
20462;SDS011;10390;53.566;9.980;2023-03-14T08:45:17;6.05;;;4.93;;
20462;SDS011;10390;53.566;9.980;2023-03-14T08:47:43;5.97;;;5.20;;
20462;SDS011;10390;53.566;9.980;2023-03-14T08:50:10;5.63;;;5.03;;
20462;SDS011;10390;53.566;9.980;2023-03-14T08:52:36;5.90;;;5.30;;
20462;SDS011;10390;53.566;9.980;2023-03-14T08:55:05;6.70;;;5.55;;
20462;SDS011;10390;53.566;9.980;2023-03-14T08:57:32;6.30;;;4.50;;
20462;SDS011;10390;53.566;9.980;2023-03-14T08:59:57;7.43;;;5.00;;
20462;SDS011;10390;53.566;9.980;2023-03-14T09:02:23;8.52;;;5.00;;
20462;SDS011;10390;53.566;9.980;2023-03-14T09:04:50;6.57;;;4.93;;
20462;SDS011;10390;53.566;9.980;2023-03-14T09:07:16;6.55;;;5.03;;
20462;SDS011;10390;53.566;9.980;2023-03-14T09:09:42;7.43;;;4.90;;
20462;SDS011;10390;53.566;9.980;2023-03-14T09:12:08;6.07;;;4.88;;
20462;SDS011;10390;53.566;9.980;2023-03-14T09:14:33;7.00;;;5.25;;
20462;SDS011;10390;53.566;9.980;2023-03-14T09:16:59;7.97;;;5.60;;
20462;SDS011;10390;53.566;9.980;2023-03-14T09:19:24;7.90;;;5.40;;
20462;SDS011;10390;53.566;9.980;2023-03-14T09:21:50;9.32;;;5.07;;
20462;SDS011;10390;53.566;9.980;2023-03-14T09:24:16;8.02;;;5.40;;
20462;SDS011;10390;53.566;9.980;2023-03-14T09:26:42;6.97;;;5.40;;
20462;SDS011;10390;53.566;9.980;2023-03-14T09:29:08;8.02;;;5.40;;
20462;SDS011;10390;53.566;9.980;2023-03-14T09:31:33;6.13;;;5.18;;
20462;SDS011;10390;53.566;9.980;2023-03-14T09:34:00;6.97;;;5.38;;
20462;SDS011;10390;53.566;9.980;2023-03-14T09:36:25;6.88;;;5.35;;
20462;SDS011;10390;53.566;9.980;2023-03-14T09:38:51;6.00;;;5.00;;
20462;SDS011;10390;53.566;9.980;2023-03-14T09:41:24;8.02;;;5.45;;
20462;SDS011;10390;53.566;9.980;2023-03-14T09:44:03;7.50;;;5.60;;
20462;SDS011;10390;53.566;9.980;2023-03-14T09:46:38;6.43;;;5.63;;
20462;SDS011;10390;53.566;9.980;2023-03-14T09:49:13;6.28;;;5.57;;
20462;SDS011;10390;53.566;9.980;2023-03-14T09:51:50;7.65;;;4.72;;
20462;SDS011;10390;53.566;9.980;2023-03-14T09:54:24;6.45;;;4.72;;
20462;SDS011;10390;53.566;9.980;2023-03-14T09:56:57;5.60;;;4.97;;
20462;SDS011;10390;53.566;9.980;2023-03-14T09:59:23;9.45;;;4.80;;
20462;SDS011;10390;53.566;9.980;2023-03-14T10:01:51;5.70;;;4.43;;
20462;SDS011;10390;53.566;9.980;2023-03-14T10:04:18;5.30;;;4.38;;
20462;SDS011;10390;53.566;9.980;2023-03-14T10:06:48;7.05;;;4.82;;
20462;SDS011;10390;53.566;9.980;2023-03-14T10:09:15;8.80;;;5.00;;
20462;SDS011;10390;53.566;9.980;2023-03-14T10:11:51;5.30;;;4.53;;
20462;SDS011;10390;53.566;9.980;2023-03-14T10:14:28;5.13;;;4.63;;
20462;SDS011;10390;53.566;9.980;2023-03-14T10:17:07;6.07;;;4.68;;
20462;SDS011;10390;53.566;9.980;2023-03-14T10:19:36;6.32;;;5.00;;
20462;SDS011;10390;53.566;9.980;2023-03-14T10:22:03;7.20;;;4.53;;
20462;SDS011;10390;53.566;9.980;2023-03-14T10:24:34;6.38;;;4.85;;
20462;SDS011;10390;53.566;9.980;2023-03-14T10:27:02;5.63;;;4.65;;
20462;SDS011;10390;53.566;9.980;2023-03-14T10:29:30;5.53;;;4.50;;
20462;SDS011;10390;53.566;9.980;2023-03-14T10:32:01;5.40;;;4.57;;
20462;SDS011;10390;53.566;9.980;2023-03-14T10:34:35;5.72;;;4.63;;
20462;SDS011;10390;53.566;9.980;2023-03-14T10:37:21;6.15;;;5.10;;
20462;SDS011;10390;53.566;9.980;2023-03-14T10:39:52;6.25;;;5.00;;
20462;SDS011;10390;53.566;9.980;2023-03-14T10:42:24;5.22;;;4.60;;
20462;SDS011;10390;53.566;9.980;2023-03-14T10:44:55;5.40;;;4.40;;
20462;SDS011;10390;53.566;9.980;2023-03-14T10:47:24;6.53;;;4.90;;
20462;SDS011;10390;53.566;9.980;2023-03-14T10:49:53;5.00;;;4.50;;
20462;SDS011;10390;53.566;9.980;2023-03-14T10:52:23;5.13;;;4.63;;
20462;SDS011;10390;53.566;9.980;2023-03-14T10:54:54;5.22;;;4.60;;
20462;SDS011;10390;53.566;9.980;2023-03-14T10:57:22;5.38;;;4.70;;
20462;SDS011;10390;53.566;9.980;2023-03-14T10:59:49;6.25;;;4.82;;
20462;SDS011;10390;53.566;9.980;2023-03-14T11:07:47;5.35;;;4.85;;
20462;SDS011;10390;53.566;9.980;2023-03-14T11:10:19;5.32;;;4.80;;
20462;SDS011;10390;53.566;9.980;2023-03-14T11:24:49;5.47;;;4.88;;
20462;SDS011;10390;53.566;9.980;2023-03-14T11:27:05;5.47;;;4.80;;
20462;SDS011;10390;53.566;9.980;2023-03-14T11:29:39;5.68;;;5.18;;
20462;SDS011;10390;53.566;9.980;2023-03-14T11:32:13;5.40;;;4.90;;
20462;SDS011;10390;53.566;9.980;2023-03-14T11:34:53;5.40;;;4.90;;
20462;SDS011;10390;53.566;9.980;2023-03-14T11:42:49;6.13;;;5.53;;
20462;SDS011;10390;53.566;9.980;2023-03-14T11:45:29;4.93;;;4.43;;
20462;SDS011;10390;53.566;9.980;2023-03-14T11:48:07;5.82;;;5.32;;
20462;SDS011;10390;53.566;9.980;2023-03-14T11:50:36;5.38;;;4.88;;
20462;SDS011;10390;53.566;9.980;2023-03-14T11:53:07;5.43;;;4.80;;
20462;SDS011;10390;53.566;9.980;2023-03-14T11:55:40;4.90;;;4.32;;
20462;SDS011;10390;53.566;9.980;2023-03-14T11:58:16;5.63;;;5.03;;
20462;SDS011;10390;53.566;9.980;2023-03-14T12:00:45;5.18;;;4.68;;
20462;SDS011;10390;53.566;9.980;2023-03-14T12:11:34;5.50;;;4.93;;
20462;SDS011;10390;53.566;9.980;2023-03-14T12:14:24;5.68;;;5.10;;
20462;SDS011;10390;53.566;9.980;2023-03-14T12:16:53;5.50;;;5.00;;
20462;SDS011;10390;53.566;9.980;2023-03-14T12:24:21;5.45;;;4.65;;
20462;SDS011;10390;53.566;9.980;2023-03-14T12:26:59;5.03;;;4.53;;
20462;SDS011;10390;53.566;9.980;2023-03-14T12:29:29;5.38;;;4.88;;
20462;SDS011;10390;53.566;9.980;2023-03-14T12:34:33;4.85;;;4.38;;
20462;SDS011;10390;53.566;9.980;2023-03-14T12:37:12;6.18;;;4.47;;
20462;SDS011;10390;53.566;9.980;2023-03-14T12:39:50;4.70;;;4.20;;
20462;SDS011;10390;53.566;9.980;2023-03-14T12:42:40;4.60;;;4.10;;
20462;SDS011;10390;53.566;9.980;2023-03-14T12:50:12;5.30;;;4.75;;
20462;SDS011;10390;53.566;9.980;2023-03-14T12:55:26;5.30;;;4.80;;
20462;SDS011;10390;53.566;9.980;2023-03-14T13:00:56;5.47;;;4.97;;
20462;SDS011;10390;53.566;9.980;2023-03-14T13:03:26;4.97;;;4.47;;
20462;SDS011;10390;53.566;9.980;2023-03-14T13:09:34;4.88;;;4.47;;
20462;SDS011;10390;53.566;9.980;2023-03-14T13:12:10;5.55;;;5.05;;
20462;SDS011;10390;53.566;9.980;2023-03-14T13:14:43;5.40;;;4.90;;
20462;SDS011;10390;53.566;9.980;2023-03-14T13:17:12;4.68;;;4.28;;
20462;SDS011;10390;53.566;9.980;2023-03-14T13:19:39;5.85;;;5.25;;
20462;SDS011;10390;53.566;9.980;2023-03-14T13:22:12;5.50;;;4.88;;
20462;SDS011;10390;53.566;9.980;2023-03-14T13:24:42;5.10;;;4.60;;
20462;SDS011;10390;53.566;9.980;2023-03-14T13:27:13;5.20;;;4.70;;
20462;SDS011;10390;53.566;9.980;2023-03-14T13:29:44;4.88;;;4.30;;
20462;SDS011;10390;53.566;9.980;2023-03-14T13:32:18;5.32;;;4.82;;
20462;SDS011;10390;53.566;9.980;2023-03-14T13:34:45;5.10;;;4.60;;
20462;SDS011;10390;53.566;9.980;2023-03-14T13:37:20;4.82;;;4.32;;
20462;SDS011;10390;53.566;9.980;2023-03-14T13:39:51;4.57;;;4.10;;
20462;SDS011;10390;53.566;9.980;2023-03-14T13:42:21;4.80;;;4.38;;
20462;SDS011;10390;53.566;9.980;2023-03-14T13:44:51;4.57;;;4.18;;
20462;SDS011;10390;53.566;9.980;2023-03-14T13:47:19;4.80;;;4.30;;
20462;SDS011;10390;53.566;9.980;2023-03-14T13:49:46;5.35;;;4.85;;
20462;SDS011;10390;53.566;9.980;2023-03-14T13:55:03;4.40;;;4.00;;
20462;SDS011;10390;53.566;9.980;2023-03-14T13:57:43;5.43;;;4.63;;
20462;SDS011;10390;53.566;9.980;2023-03-14T14:00:18;5.68;;;4.32;;
20462;SDS011;10390;53.566;9.980;2023-03-14T14:02:45;4.90;;;4.40;;
20462;SDS011;10390;53.566;9.980;2023-03-14T14:05:12;5.10;;;4.60;;
20462;SDS011;10390;53.566;9.980;2023-03-14T14:07:38;5.38;;;4.88;;
20462;SDS011;10390;53.566;9.980;2023-03-14T14:10:05;5.13;;;4.63;;
20462;SDS011;10390;53.566;9.980;2023-03-14T14:12:35;5.70;;;5.20;;
20462;SDS011;10390;53.566;9.980;2023-03-14T14:15:11;5.90;;;4.90;;
20462;SDS011;10390;53.566;9.980;2023-03-14T14:17:41;5.45;;;4.80;;
20462;SDS011;10390;53.566;9.980;2023-03-14T14:20:14;5.40;;;4.82;;
20462;SDS011;10390;53.566;9.980;2023-03-14T14:22:45;5.57;;;4.30;;
20462;SDS011;10390;53.566;9.980;2023-03-14T14:25:14;6.72;;;5.20;;
20462;SDS011;10390;53.566;9.980;2023-03-14T14:27:42;6.95;;;5.95;;
20462;SDS011;10390;53.566;9.980;2023-03-14T14:32:43;7.00;;;6.30;;
20462;SDS011;10390;53.566;9.980;2023-03-14T14:35:23;8.35;;;6.45;;
20462;SDS011;10390;53.566;9.980;2023-03-14T14:37:57;7.25;;;5.57;;
20462;SDS011;10390;53.566;9.980;2023-03-14T14:40:23;7.97;;;6.18;;
20462;SDS011;10390;53.566;9.980;2023-03-14T14:42:50;7.28;;;5.95;;
20462;SDS011;10390;53.566;9.980;2023-03-14T14:45:17;7.53;;;6.00;;
20462;SDS011;10390;53.566;9.980;2023-03-14T14:47:55;8.07;;;7.18;;
20462;SDS011;10390;53.566;9.980;2023-03-14T14:50:39;9.32;;;6.57;;
20462;SDS011;10390;53.566;9.980;2023-03-14T14:53:19;7.72;;;5.97;;
20462;SDS011;10390;53.566;9.980;2023-03-14T14:55:49;11.27;;;6.18;;
20462;SDS011;10390;53.566;9.980;2023-03-14T15:00:59;8.85;;;6.30;;
20462;SDS011;10390;53.566;9.980;2023-03-14T15:03:41;9.38;;;6.60;;
20462;SDS011;10390;53.566;9.980;2023-03-14T15:06:09;9.05;;;7.45;;
20462;SDS011;10390;53.566;9.980;2023-03-14T15:08:37;11.93;;;6.85;;
20462;SDS011;10390;53.566;9.980;2023-03-14T15:11:03;10.23;;;6.72;;
20462;SDS011;10390;53.566;9.980;2023-03-14T15:13:29;8.65;;;7.00;;
20462;SDS011;10390;53.566;9.980;2023-03-14T15:15:55;9.70;;;6.88;;
20462;SDS011;10390;53.566;9.980;2023-03-14T15:18:22;8.98;;;6.47;;
20462;SDS011;10390;53.566;9.980;2023-03-14T15:20:49;8.50;;;6.63;;
20462;SDS011;10390;53.566;9.980;2023-03-14T15:23:16;10.75;;;6.85;;
20462;SDS011;10390;53.566;9.980;2023-03-14T15:25:43;7.80;;;6.18;;
20462;SDS011;10390;53.566;9.980;2023-03-14T15:28:14;8.63;;;6.07;;
20462;SDS011;10390;53.566;9.980;2023-03-14T15:30:46;9.45;;;5.95;;
20462;SDS011;10390;53.566;9.980;2023-03-14T15:33:13;8.40;;;6.18;;
20462;SDS011;10390;53.566;9.980;2023-03-14T15:35:38;8.40;;;6.10;;
20462;SDS011;10390;53.566;9.980;2023-03-14T15:38:08;7.15;;;6.03;;
20462;SDS011;10390;53.566;9.980;2023-03-14T15:40:35;9.52;;;5.60;;
20462;SDS011;10390;53.566;9.980;2023-03-14T15:43:01;12.00;;;6.75;;
20462;SDS011;10390;53.566;9.980;2023-03-14T15:45:27;7.47;;;6.43;;
20462;SDS011;10390;53.566;9.980;2023-03-14T15:47:53;9.43;;;6.10;;
20462;SDS011;10390;53.566;9.980;2023-03-14T15:50:19;7.07;;;6.38;;
20462;SDS011;10390;53.566;9.980;2023-03-14T15:52:44;6.63;;;5.13;;
20462;SDS011;10390;53.566;9.980;2023-03-14T15:55:10;7.95;;;5.95;;
20462;SDS011;10390;53.566;9.980;2023-03-14T15:57:36;7.43;;;5.80;;
20462;SDS011;10390;53.566;9.980;2023-03-14T16:00:02;7.22;;;5.68;;